Canton, Oklahoma
Current Conditions -  °F | °C
As of 10:55 AM on Monday 22 Dec 2014 (Local Time) from KJWG Reporting Station
Broken Clouds Broken Clouds  
Wind Chill: 44°   Ceiling: 9500
Heat Index: 49°   Visibility: 10mi
Dew Point: 40°   Wind: 12mph
Humidity: 73%   Direction: 320°NW
Pressure: 29.64"   Gusts: 18mph
Location:  36.05°N, 98.59°W
Report Text: KJWG 221655Z AUTO 32010G16KT 10SM BKN095 BKN120 09/05 A2964 RMK AO2 T00940047
Loading
Personal Weather Stations






























Interactive Weather Map New forecast layout! Learn more

10-Day Weather Forecast

Advertisements
Track Severe Weather on mobile